createdAt,value
2018-04-07T00:01:40.718Z,99.99
2018-04-07T00:02:40.646Z,99.99
2018-04-07T00:04:32.386Z,99.99
2018-04-07T00:05:32.325Z,99.99
2018-04-07T00:07:24.089Z,99.99
2018-04-07T00:08:23.998Z,99.99
2018-04-07T00:10:15.758Z,99.99
2018-04-07T00:11:15.680Z,99.99
2018-04-07T00:13:07.431Z,99.99
2018-04-07T00:14:07.364Z,99.99
2018-04-07T00:15:59.134Z,99.99
2018-04-07T00:16:59.076Z,99.99
2018-04-07T00:18:50.819Z,99.99
2018-04-07T00:19:50.751Z,99.99
2018-04-07T00:21:42.504Z,99.99
2018-04-07T00:22:42.428Z,99.99
2018-04-07T00:24:34.175Z,99.99
2018-04-07T00:25:34.105Z,99.99
2018-04-07T00:27:25.872Z,99.99
2018-04-07T00:28:25.796Z,99.99
2018-04-07T00:30:17.551Z,99.99
2018-04-07T00:31:17.475Z,99.99
2018-04-07T00:33:09.249Z,99.99
2018-04-07T00:34:09.172Z,99.99
2018-04-07T00:36:00.942Z,99.99
2018-04-07T00:37:00.862Z,99.99
2018-04-07T00:38:52.621Z,99.99
2018-04-07T00:39:52.534Z,99.99
2018-04-07T00:41:44.289Z,99.99
2018-04-07T00:42:44.210Z,99.99
2018-04-07T00:44:35.971Z,99.99
2018-04-07T00:45:35.905Z,99.99
2018-04-07T00:47:27.666Z,99.99
2018-04-07T00:48:27.633Z,99.99
2018-04-07T00:50:19.327Z,99.99
2018-04-07T00:51:19.260Z,99.99
2018-04-07T00:53:11.013Z,99.99
2018-04-07T00:54:10.931Z,99.99
2018-04-07T00:56:02.722Z,99.99
2018-04-07T00:57:02.611Z,99.99
2018-04-07T00:58:54.363Z,99.99
2018-04-07T00:59:54.294Z,99.99
2018-04-07T01:01:46.054Z,99.99
2018-04-07T01:02:45.977Z,99.99
2018-04-07T01:04:37.737Z,99.99
2018-04-07T01:05:37.670Z,99.99
2018-04-07T01:07:29.422Z,99.99
2018-04-07T01:08:29.342Z,99.99
2018-04-07T01:10:21.093Z,99.99
2018-04-07T01:11:21.029Z,99.99
2018-04-07T01:13:12.782Z,99.99
2018-04-07T01:14:12.703Z,99.99
2018-04-07T01:16:04.447Z,99.99
2018-04-07T01:17:04.382Z,99.99
2018-04-07T01:18:56.160Z,99.99
2018-04-07T01:19:56.074Z,99.99
2018-04-07T01:21:47.837Z,99.99
2018-04-07T01:22:47.765Z,99.99
2018-04-07T01:24:39.510Z,99.99
2018-04-07T01:25:39.438Z,99.99
2018-04-07T01:27:31.189Z,99.99
2018-04-07T01:28:31.114Z,99.99
2018-04-07T01:30:22.852Z,99.99
2018-04-07T01:31:22.786Z,99.99
2018-04-07T01:33:14.548Z,99.99
2018-04-07T01:34:14.462Z,99.99
2018-04-07T01:36:06.206Z,99.99
2018-04-07T01:37:06.135Z,99.99
2018-04-07T01:38:57.909Z,99.99
2018-04-07T01:39:57.824Z,99.99
2018-04-07T01:41:49.584Z,99.99
2018-04-07T01:42:49.510Z,99.99
2018-04-07T01:44:41.247Z,99.99
2018-04-07T01:45:41.188Z,99.99
2018-04-07T01:47:32.968Z,99.99
2018-04-07T01:48:32.892Z,99.99
2018-04-07T01:50:24.636Z,99.99
2018-04-07T01:51:24.566Z,99.99
2018-04-07T01:53:16.322Z,99.99
2018-04-07T01:54:16.242Z,99.99
2018-04-07T01:56:07.997Z,99.99
2018-04-07T01:57:07.923Z,99.99
2018-04-07T01:58:59.683Z,99.99
2018-04-07T01:59:59.606Z,99.99
2018-04-07T02:01:51.377Z,99.99
2018-04-07T02:02:51.311Z,99.99
2018-04-07T02:04:43.068Z,99.99
2018-04-07T02:05:42.986Z,99.99
2018-04-07T02:07:34.743Z,99.99
2018-04-07T02:08:34.668Z,99.99
2018-04-07T02:10:26.413Z,99.99
2018-04-07T02:11:26.344Z,99.99
2018-04-07T02:13:18.107Z,99.99
2018-04-07T02:14:18.030Z,99.99
2018-04-07T02:16:09.784Z,99.99
2018-04-07T02:17:09.720Z,99.99
2018-04-07T02:19:01.489Z,99.99
2018-04-07T02:20:01.416Z,99.99
2018-04-07T02:21:53.150Z,99.99
2018-04-07T02:22:53.083Z,99.99
2018-04-07T02:24:44.837Z,99.99
2018-04-07T02:25:44.754Z,99.99
2018-04-07T02:27:36.551Z,99.99
2018-04-07T02:28:36.434Z,99.99
2018-04-07T02:30:28.187Z,99.99
2018-04-07T02:31:28.117Z,99.99
2018-04-07T02:33:19.876Z,99.99
2018-04-07T02:34:19.799Z,99.99
2018-04-07T02:36:11.538Z,99.99
2018-04-07T02:37:11.471Z,99.99
2018-04-07T02:39:03.221Z,99.99
2018-04-07T02:40:03.146Z,99.99
2018-04-07T02:41:54.898Z,99.99
2018-04-07T02:42:54.828Z,99.99
2018-04-07T02:44:46.619Z,99.99
2018-04-07T02:45:46.530Z,99.99
2018-04-07T02:47:38.285Z,99.99
2018-04-07T02:48:38.222Z,99.99
2018-04-07T02:50:29.985Z,99.99
2018-04-07T02:51:29.898Z,99.99
2018-04-07T02:53:21.660Z,99.99
2018-04-07T02:54:21.592Z,99.99
2018-04-07T02:56:13.321Z,99.99
2018-04-07T02:57:13.254Z,99.99
2018-04-07T02:59:05.029Z,99.99
2018-04-07T03:00:04.950Z,99.99
2018-04-07T03:01:56.693Z,99.99
2018-04-07T03:02:56.619Z,99.99
2018-04-07T03:04:48.389Z,99.99
2018-04-07T03:05:48.306Z,99.99
2018-04-07T03:07:40.058Z,99.99
2018-04-07T03:08:39.990Z,99.99
2018-04-07T03:10:31.751Z,99.99
2018-04-07T03:11:31.673Z,99.99
2018-04-07T03:13:23.443Z,99.99
2018-04-07T03:14:23.354Z,99.99
2018-04-07T03:16:15.107Z,99.99
2018-04-07T03:17:15.045Z,99.99
2018-04-07T03:19:06.796Z,99.99
2018-04-07T03:20:06.715Z,99.99
2018-04-07T03:21:58.459Z,99.99
2018-04-07T03:22:58.392Z,99.99
2018-04-07T03:24:50.155Z,99.99
2018-04-07T03:25:50.073Z,99.99
2018-04-07T03:27:41.819Z,99.99
2018-04-07T03:28:41.753Z,99.99
2018-04-07T03:30:33.532Z,99.99
2018-04-07T03:31:33.451Z,99.99
2018-04-07T03:33:25.201Z,99.99
2018-04-07T03:34:25.134Z,99.99
2018-04-07T03:36:16.896Z,99.99
2018-04-07T03:37:16.811Z,99.99
2018-04-07T03:39:08.579Z,99.99
2018-04-07T03:40:08.490Z,99.99
2018-04-07T03:42:00.244Z,99.99
2018-04-07T03:43:00.177Z,99.99
2018-04-07T03:44:51.992Z,99.99
2018-04-07T03:45:51.913Z,99.99
2018-04-07T03:47:43.668Z,99.99
2018-04-07T03:48:43.601Z,99.99
2018-04-07T03:50:35.349Z,99.99
2018-04-07T03:51:35.273Z,99.99
2018-04-07T03:53:27.018Z,99.99
2018-04-07T03:54:26.948Z,99.99
2018-04-07T03:56:18.726Z,99.99
2018-04-07T03:57:18.636Z,99.99
2018-04-07T03:59:10.424Z,99.99
2018-04-07T04:00:10.304Z,99.99
2018-04-07T04:02:02.056Z,99.99
2018-04-07T04:03:01.984Z,99.99
2018-04-07T04:04:53.736Z,99.99
2018-04-07T04:05:53.656Z,99.99
2018-04-07T04:07:45.406Z,99.99
2018-04-07T04:08:45.337Z,99.99
2018-04-07T04:10:37.094Z,99.99
2018-04-07T04:11:37.025Z,99.99
2018-04-07T04:13:28.771Z,99.99
2018-04-07T04:14:28.701Z,99.99
2018-04-07T04:16:20.459Z,99.99
2018-04-07T04:17:20.385Z,99.99
2018-04-07T04:19:12.122Z,99.99
2018-04-07T04:20:12.059Z,99.99
2018-04-07T04:22:03.817Z,98.59
2018-04-07T04:23:03.740Z,97.92
2018-04-07T04:24:55.486Z,99.16
2018-04-07T04:25:55.411Z,99.99
2018-04-07T04:27:47.161Z,99.07
2018-04-07T04:28:47.104Z,99.99
2018-04-07T04:30:38.853Z,99.99
2018-04-07T04:31:38.780Z,99.99
2018-04-07T04:33:30.525Z,99.99
2018-04-07T04:34:30.464Z,97.92
2018-04-07T04:36:22.224Z,96.22
2018-04-07T04:37:22.142Z,99.99
2018-04-07T04:39:13.893Z,95.65
2018-04-07T04:40:13.822Z,95.46
2018-04-07T04:42:05.602Z,96.69
2018-04-07T04:43:05.513Z,92.90
2018-04-07T04:44:57.286Z,94.42
2018-04-07T04:45:57.196Z,93.46
2018-04-07T04:47:48.945Z,91.09
2018-04-07T04:48:48.877Z,90.90
2018-04-07T04:50:40.634Z,92.18
2018-04-07T04:51:40.555Z,89.14
2018-04-07T04:53:32.306Z,90.94
2018-04-07T04:54:32.241Z,90.94
2018-04-07T04:56:24.004Z,87.24
2018-04-07T04:57:23.927Z,88.95
2018-04-07T04:59:15.667Z,86.76
2018-04-07T05:00:15.633Z,85.34
2018-04-07T05:02:07.488Z,88.38
2018-04-07T05:03:07.412Z,89.61
2018-04-07T05:04:59.142Z,87.34
2018-04-07T05:05:59.026Z,84.86
2018-04-07T05:07:50.839Z,87.52
2018-04-07T05:08:50.832Z,83.91
2018-04-07T05:10:42.585Z,82.68
2018-04-07T05:11:42.536Z,82.58
2018-04-07T05:13:34.246Z,83.25
2018-04-07T05:14:34.246Z,81.44
2018-04-07T05:16:26.105Z,77.55
2018-04-07T05:17:26.233Z,80.40
2018-04-07T05:19:17.848Z,78.25
2018-04-07T05:20:17.729Z,77.58
2018-04-07T05:22:09.519Z,78.16
2018-04-07T05:23:09.450Z,77.30
2018-04-07T05:25:01.193Z,75.78
2018-04-07T05:26:01.121Z,76.35
2018-04-07T05:27:52.904Z,74.54
2018-04-07T05:28:52.813Z,74.63
2018-04-07T05:30:44.655Z,72.26
2018-04-07T05:31:44.569Z,73.49
2018-04-07T05:33:36.368Z,74.63
2018-04-07T05:34:36.344Z,72.07
2018-04-07T05:36:28.100Z,69.60
2018-04-07T05:37:28.007Z,69.69
2018-04-07T05:39:19.749Z,67.22
2018-04-07T05:40:19.672Z,68.59
2018-04-07T05:42:11.558Z,66.94
2018-04-07T05:43:11.382Z,66.02
2018-04-07T05:45:03.193Z,65.45
2018-04-07T05:46:03.082Z,64.11
2018-04-07T05:47:55.053Z,62.53
2018-04-07T05:48:55.045Z,61.29
2018-04-07T05:50:46.790Z,60.24
2018-04-07T05:51:46.757Z,59.58
2018-04-07T05:53:38.779Z,58.37
2018-04-07T05:54:38.469Z,58.18
2018-04-07T05:56:30.378Z,57.60
2018-04-07T05:57:30.202Z,57.80
2018-04-07T05:59:22.001Z,57.39
2018-04-07T06:00:21.970Z,57.32
2018-04-07T06:02:13.707Z,57.13
2018-04-07T06:03:13.647Z,56.94
2018-04-07T06:05:05.396Z,55.54
2018-04-07T06:06:05.333Z,55.35
2018-04-07T06:07:57.397Z,54.68
2018-04-07T06:08:57.123Z,54.21
2018-04-07T06:10:48.867Z,53.76
2018-04-07T06:11:48.843Z,53.35
2018-04-07T06:13:40.601Z,54.02
2018-04-07T06:14:40.530Z,53.73
2018-04-07T06:16:32.389Z,53.09
2018-04-07T06:17:32.401Z,52.20
2018-04-07T06:19:24.278Z,52.97
2018-04-07T06:20:24.180Z,53.16
2018-04-07T06:22:16.211Z,52.42
2018-04-07T06:23:15.900Z,51.95
2018-04-07T06:25:07.955Z,50.90
2018-04-07T06:26:07.612Z,50.71
2018-04-07T06:27:59.505Z,50.54
2018-04-07T06:28:59.318Z,50.42
2018-04-07T06:30:51.187Z,51.09
2018-04-07T06:31:51.073Z,51.47
2018-04-07T06:33:42.929Z,51.09
2018-04-07T06:34:42.839Z,51.47
2018-04-07T06:36:34.628Z,51.37
2018-04-07T06:37:34.709Z,51.18
2018-04-07T06:39:26.458Z,52.11
2018-04-07T06:40:26.283Z,52.20
2018-04-07T06:42:18.108Z,52.97
2018-04-07T06:43:17.993Z,52.68
2018-04-07T06:45:09.812Z,51.85
2018-04-07T06:46:09.777Z,51.18
2018-04-07T06:48:01.655Z,50.54
2018-04-07T06:49:01.500Z,50.63
2018-04-07T06:50:53.281Z,49.97
2018-04-07T06:51:53.204Z,49.42
2018-04-07T06:53:45.075Z,47.71
2018-04-07T06:54:44.990Z,47.44
2018-04-07T06:56:36.827Z,46.97
2018-04-07T06:57:36.804Z,45.94
2018-04-07T06:59:28.569Z,45.10
2018-04-07T07:00:28.550Z,44.60
2018-04-07T07:02:20.275Z,44.41
2018-04-07T07:03:20.207Z,44.22
2018-04-07T07:05:12.001Z,44.34
2018-04-07T07:06:11.971Z,43.57
2018-04-07T07:08:03.861Z,44.34
2018-04-07T07:09:03.772Z,43.38
2018-04-07T07:10:55.491Z,44.51
2018-04-07T07:11:55.496Z,44.22
2018-04-07T07:13:47.231Z,44.12
2018-04-07T07:14:47.146Z,44.34
2018-04-07T07:16:38.995Z,42.83
2018-04-07T07:17:38.952Z,41.89
2018-04-07T07:19:30.840Z,40.67
2018-04-07T07:20:30.647Z,40.09
2018-04-07T07:22:22.574Z,40.09
2018-04-07T07:23:22.424Z,40.09
2018-04-07T07:25:14.307Z,38.96
2018-04-07T07:26:14.155Z,38.70
2018-04-07T07:28:06.075Z,38.20
2018-04-07T07:29:05.933Z,38.20
2018-04-07T07:30:57.793Z,37.93
2018-04-07T07:31:57.696Z,36.98
2018-04-07T07:33:49.640Z,37.53
2018-04-07T07:34:49.486Z,38.10
2018-04-07T07:36:41.217Z,37.66
2018-04-07T07:37:41.154Z,37.49
2018-04-07T07:39:33.041Z,35.21
2018-04-07T07:40:32.950Z,34.90
2018-04-07T07:42:24.720Z,34.75
2018-04-07T07:43:24.679Z,35.30
2018-04-07T07:45:16.585Z,35.48
2018-04-07T07:46:16.433Z,35.96
2018-04-07T07:48:08.290Z,36.98
2018-04-07T07:49:08.156Z,36.49
2018-04-07T07:50:59.996Z,36.49
2018-04-07T07:51:59.977Z,36.02
2018-04-07T07:53:51.765Z,37.05
2018-04-07T07:54:51.679Z,36.96
2018-04-07T07:56:44.041Z,37.07
2018-04-07T07:57:43.538Z,36.57
2018-04-07T07:59:35.401Z,37.93
2018-04-07T08:00:35.275Z,36.04
2018-04-07T08:02:27.151Z,35.83
2018-04-07T08:03:26.995Z,36.04
2018-04-07T08:05:18.916Z,35.00
2018-04-07T08:06:18.726Z,34.61
2018-04-07T08:08:10.521Z,33.67
2018-04-07T08:09:10.464Z,33.50
2018-04-07T08:11:02.256Z,33.19
2018-04-07T08:12:02.197Z,33.50
2018-04-07T08:13:55.809Z,32.42
2018-04-07T08:14:53.960Z,32.52
2018-04-07T08:16:45.729Z,33.47
2018-04-07T08:17:45.671Z,33.56
2018-04-07T08:19:37.613Z,32.90
2018-04-07T08:20:37.575Z,32.14
2018-04-07T08:22:29.381Z,32.62
2018-04-07T08:23:29.601Z,32.44
2018-04-07T08:25:21.411Z,31.11
2018-04-07T08:26:21.144Z,30.63
2018-04-07T08:28:13.124Z,30.82
2018-04-07T08:29:12.965Z,31.00
2018-04-07T08:31:04.849Z,30.89
2018-04-07T08:32:04.730Z,31.45
2018-04-07T08:33:56.507Z,32.04
2018-04-07T08:34:56.470Z,31.93
2018-04-07T08:36:48.296Z,32.41
2018-04-07T08:37:48.290Z,32.71
2018-04-07T08:39:40.133Z,32.12
2018-04-07T08:40:39.974Z,32.42
2018-04-07T08:42:31.797Z,31.95
2018-04-07T08:43:31.745Z,31.64
2018-04-07T08:45:23.882Z,32.41
2018-04-07T08:46:23.517Z,32.42
2018-04-07T08:48:15.304Z,30.81
2018-04-07T08:49:15.270Z,30.73
2018-04-07T08:51:07.164Z,29.11
2018-04-07T08:52:07.038Z,28.92
2018-04-07T08:53:59.067Z,29.28
2018-04-07T08:54:58.852Z,29.67
2018-04-07T08:56:50.679Z,30.23
2018-04-07T08:57:50.602Z,30.43
2018-04-07T08:59:42.741Z,30.14
2018-04-07T09:00:42.445Z,30.14
2018-04-07T09:02:34.208Z,30.51
2018-04-07T09:03:34.390Z,30.90
2018-04-07T09:05:25.963Z,30.60
2018-04-07T09:06:25.883Z,30.51
2018-04-07T09:08:17.654Z,31.75
2018-04-07T09:09:18.004Z,31.10
2018-04-07T09:11:09.407Z,30.70
2018-04-07T09:12:09.407Z,31.46
2018-04-07T09:14:01.105Z,30.79
2018-04-07T09:15:01.022Z,31.18
2018-04-07T09:16:52.842Z,31.10
2018-04-07T09:17:53.086Z,30.52
2018-04-07T09:19:44.645Z,30.99
2018-04-07T09:20:44.550Z,30.90
2018-04-07T09:22:36.303Z,30.23
2018-04-07T09:23:36.244Z,30.15
2018-04-07T09:25:28.353Z,30.08
2018-04-07T09:26:28.086Z,29.13
2018-04-07T09:28:19.807Z,28.36
2018-04-07T09:29:19.903Z,28.16
2018-04-07T09:31:11.595Z,28.22
2018-04-07T09:32:11.496Z,29.27
2018-04-07T09:34:03.434Z,29.66
2018-04-07T09:35:03.387Z,29.28
2018-04-07T09:36:55.203Z,29.02
2018-04-07T09:37:55.122Z,29.11
2018-04-07T09:39:46.986Z,28.92
2018-04-07T09:40:46.938Z,28.72
2018-04-07T09:42:38.760Z,28.41
2018-04-07T09:43:38.750Z,28.81
2018-04-07T09:45:30.738Z,28.53
2018-04-07T09:46:30.568Z,28.66
2018-04-07T09:48:22.316Z,27.60
2018-04-07T09:49:22.464Z,27.50
2018-04-07T09:51:15.174Z,26.84
2018-04-07T09:52:14.192Z,27.24
2018-04-07T09:54:06.282Z,26.56
2018-04-07T09:55:06.121Z,26.57
2018-04-07T09:56:57.822Z,26.86
2018-04-07T09:57:57.790Z,26.37
2018-04-07T09:59:49.531Z,26.36
2018-04-07T10:00:49.556Z,26.65
2018-04-07T10:02:41.508Z,27.02
2018-04-07T10:03:41.333Z,27.49
2018-04-07T10:05:33.329Z,28.07
2018-04-07T10:06:33.269Z,27.89
2018-04-07T10:08:25.019Z,27.78
2018-04-07T10:09:24.961Z,27.30
2018-04-07T10:11:17.058Z,28.95
2018-04-07T10:12:16.787Z,28.67
2018-04-07T10:14:10.396Z,28.08
2018-04-07T10:15:08.575Z,27.98
2018-04-07T10:17:01.417Z,27.69
2018-04-07T10:18:01.350Z,29.04
2018-04-07T10:19:53.160Z,28.36
2018-04-07T10:20:53.145Z,28.45
2018-04-07T10:22:45.353Z,28.36
2018-04-07T10:23:45.061Z,28.16
2018-04-07T10:25:36.854Z,28.25
2018-04-07T10:26:36.775Z,28.82
2018-04-07T10:28:28.693Z,29.59
2018-04-07T10:29:28.517Z,29.30
2018-04-07T10:31:20.503Z,28.26
2018-04-07T10:32:20.486Z,28.16
2018-04-07T10:34:12.238Z,29.33
2018-04-07T10:35:12.164Z,28.18
2018-04-07T10:37:03.999Z,28.75
2018-04-07T10:38:04.037Z,28.96
2018-04-07T10:39:56.498Z,27.81
2018-04-07T10:40:56.392Z,27.91
2018-04-07T10:42:48.301Z,27.51
2018-04-07T10:43:48.200Z,28.58
2018-04-07T10:45:40.951Z,27.80
2018-04-07T10:46:40.701Z,27.89
2018-04-07T10:48:33.164Z,28.75
2018-04-07T10:49:33.111Z,27.80
2018-04-07T10:51:26.726Z,27.42
2018-04-07T10:52:26.540Z,27.23
2018-04-07T10:54:18.909Z,27.98
2018-04-07T10:55:18.813Z,27.50
2018-04-07T10:57:10.859Z,27.42
2018-04-07T10:58:10.635Z,27.51
2018-04-07T11:00:02.536Z,27.24
2018-04-07T11:01:02.438Z,27.23
2018-04-07T11:02:56.181Z,27.02
2018-04-07T11:03:56.032Z,27.49
2018-04-07T11:05:48.692Z,27.97
2018-04-07T11:06:48.502Z,28.34
2018-04-07T11:08:40.952Z,28.92
2018-04-07T11:09:40.869Z,29.48
2018-04-07T11:11:33.569Z,29.86
2018-04-07T11:12:33.414Z,30.54
2018-04-07T11:14:25.201Z,29.56
2018-04-07T11:15:25.147Z,30.04
2018-04-07T11:17:17.006Z,30.62
2018-04-07T11:18:16.979Z,31.10
2018-04-07T11:20:08.696Z,31.75
2018-04-07T11:21:08.640Z,32.04
2018-04-07T11:23:00.427Z,32.33
2018-04-07T11:24:00.354Z,37.24
2018-04-07T11:25:52.185Z,40.99
2018-04-07T11:26:52.120Z,39.62
2018-04-07T11:28:43.908Z,37.89
2018-04-07T11:29:43.906Z,38.66
2018-04-07T11:31:35.673Z,38.28
2018-04-07T11:32:35.554Z,37.60
2018-04-07T11:34:27.454Z,37.60
2018-04-07T11:35:27.274Z,36.74
2018-04-07T11:37:19.092Z,35.88
2018-04-07T11:38:19.008Z,35.69
2018-04-07T11:40:10.793Z,35.97
2018-04-07T11:41:10.736Z,35.88
2018-04-07T11:43:02.579Z,35.02
2018-04-07T11:44:02.519Z,34.73
2018-04-07T11:45:54.365Z,35.30
2018-04-07T11:46:54.358Z,35.11
2018-04-07T11:48:46.175Z,35.78
2018-04-07T11:49:46.125Z,35.40
2018-04-07T11:51:38.479Z,34.53
2018-04-07T11:52:37.847Z,34.92
2018-04-07T11:54:30.058Z,34.44
2018-04-07T11:55:29.823Z,33.96
2018-04-07T11:57:21.652Z,34.75
2018-04-07T11:58:21.566Z,34.07
2018-04-07T12:00:13.352Z,34.17
2018-04-07T12:01:13.288Z,35.03
2018-04-07T12:03:05.096Z,34.36
2018-04-07T12:04:05.017Z,34.55
2018-04-07T12:05:56.784Z,34.17
2018-04-07T12:06:56.815Z,34.17
2018-04-07T12:08:48.589Z,33.50
2018-04-07T12:09:48.463Z,34.17
2018-04-07T12:11:40.312Z,34.55
2018-04-07T12:12:40.201Z,35.03
2018-04-07T12:14:31.965Z,34.55
2018-04-07T12:15:31.910Z,35.32
2018-04-07T12:17:23.725Z,34.47
2018-04-07T12:18:23.630Z,34.45
2018-04-07T12:20:15.404Z,34.45
2018-04-07T12:21:15.333Z,35.03
2018-04-07T12:23:07.111Z,35.13
2018-04-07T12:24:07.035Z,35.13
2018-04-07T12:25:58.943Z,34.65
2018-04-07T12:26:58.846Z,34.28
2018-04-07T12:28:50.646Z,34.57
2018-04-07T12:29:50.655Z,34.76
2018-04-07T12:31:42.396Z,33.90
2018-04-07T12:32:42.389Z,34.36
2018-04-07T12:34:34.193Z,34.67
2018-04-07T12:35:34.085Z,35.14
2018-04-07T12:37:25.875Z,34.09
2018-04-07T12:38:25.783Z,33.51
2018-04-07T12:40:18.244Z,33.91
2018-04-07T12:41:17.586Z,34.01
2018-04-07T12:43:09.485Z,33.15
2018-04-07T12:44:09.387Z,32.67
2018-04-07T12:46:01.157Z,32.47
2018-04-07T12:47:01.094Z,33.34
2018-04-07T12:48:52.876Z,33.44
2018-04-07T12:49:52.796Z,33.34
2018-04-07T12:51:44.609Z,33.24
2018-04-07T12:52:44.532Z,33.72
2018-04-07T12:54:36.296Z,32.59
2018-04-07T12:55:36.239Z,32.59
2018-04-07T12:57:28.118Z,33.36
2018-04-07T12:58:28.031Z,32.39
2018-04-07T13:00:19.815Z,32.01
2018-04-07T13:01:19.752Z,32.28
2018-04-07T13:03:12.173Z,32.20
2018-04-07T13:04:11.457Z,32.20
2018-04-07T13:06:03.269Z,32.01
2018-04-07T13:07:03.243Z,31.92
2018-04-07T13:08:55.135Z,31.53
2018-04-07T13:09:54.916Z,31.92
2018-04-07T13:11:46.731Z,31.34
2018-04-07T13:12:46.661Z,30.95
2018-04-07T13:14:38.444Z,31.43
2018-04-07T13:15:38.367Z,31.53
2018-04-07T13:17:30.145Z,32.20
2018-04-07T13:18:30.082Z,32.20
2018-04-07T13:20:21.921Z,32.30
2018-04-07T13:21:21.809Z,32.30
2018-04-07T13:23:13.599Z,31.62
2018-04-07T13:24:13.546Z,31.34
2018-04-07T13:26:05.306Z,30.66
2018-04-07T13:27:05.248Z,30.76
2018-04-07T13:28:57.048Z,30.77
2018-04-07T13:29:56.931Z,31.06
2018-04-07T13:31:48.692Z,30.68
2018-04-07T13:32:48.644Z,31.74
2018-04-07T13:34:40.497Z,31.16
2018-04-07T13:35:40.436Z,30.68
2018-04-07T13:37:32.236Z,31.26
2018-04-07T13:38:32.130Z,31.06
2018-04-07T13:40:23.941Z,30.77
2018-04-07T13:41:23.856Z,31.06
2018-04-07T13:43:15.648Z,30.97
2018-04-07T13:44:15.653Z,30.87
2018-04-07T13:46:07.360Z,30.97
2018-04-07T13:47:07.290Z,30.97
2018-04-07T13:48:59.075Z,30.87
2018-04-07T13:49:59.003Z,31.35
2018-04-07T13:51:50.798Z,30.88
2018-04-07T13:52:50.727Z,30.50
2018-04-07T13:54:42.506Z,30.98
2018-04-07T13:55:42.458Z,30.79
2018-04-07T13:57:34.211Z,30.02
2018-04-07T13:58:34.148Z,30.11
2018-04-07T14:00:25.996Z,29.93
2018-04-07T14:01:25.916Z,30.21
2018-04-07T14:03:17.730Z,30.79
2018-04-07T14:04:17.624Z,30.31
2018-04-07T14:06:09.433Z,30.11
2018-04-07T14:07:09.363Z,30.11
2018-04-07T14:09:01.174Z,29.93
2018-04-07T14:10:01.141Z,29.35
2018-04-07T14:11:52.991Z,29.44
2018-04-07T14:12:52.912Z,29.63
2018-04-07T14:14:44.729Z,29.46
2018-04-07T14:15:44.683Z,29.15
2018-04-07T14:17:36.424Z,29.36
2018-04-07T14:18:36.294Z,29.17
2018-04-07T14:20:28.314Z,29.17
2018-04-07T14:21:28.101Z,29.65
2018-04-07T14:23:19.899Z,29.36
2018-04-07T14:24:19.821Z,29.17
2018-04-07T14:26:11.635Z,29.27
2018-04-07T14:27:11.695Z,29.27
2018-04-07T14:29:03.405Z,29.66
2018-04-07T14:30:03.265Z,30.34
2018-04-07T14:31:55.060Z,30.32
2018-04-07T14:32:54.962Z,29.95
2018-04-07T14:34:46.812Z,30.24
2018-04-07T14:35:46.722Z,30.04
2018-04-07T14:37:38.488Z,29.84
2018-04-07T14:38:38.417Z,30.13
2018-04-07T14:40:30.210Z,29.84
2018-04-07T14:41:30.156Z,29.65
2018-04-07T14:43:21.923Z,29.46
2018-04-07T14:44:21.866Z,29.55
2018-04-07T14:46:13.634Z,29.36
2018-04-07T14:47:13.555Z,29.36
2018-04-07T14:49:05.357Z,29.36
2018-04-07T14:50:05.266Z,29.74
2018-04-07T14:51:57.042Z,29.08
2018-04-07T14:52:57.041Z,29.18
2018-04-07T14:54:48.810Z,29.28
2018-04-07T14:55:48.721Z,29.66
2018-04-07T14:57:40.546Z,28.99
2018-04-07T14:58:40.466Z,29.28
2018-04-07T15:00:32.306Z,29.08
2018-04-07T15:01:32.185Z,28.70
2018-04-07T15:03:24.028Z,29.08
2018-04-07T15:04:23.944Z,28.89
2018-04-07T15:06:15.760Z,28.80
2018-04-07T15:07:15.670Z,28.70
2018-04-07T15:09:07.472Z,28.61
2018-04-07T15:10:07.455Z,28.70
2018-04-07T15:11:59.160Z,29.18
2018-04-07T15:12:59.099Z,29.38
2018-04-07T15:14:50.878Z,29.38
2018-04-07T15:15:50.798Z,29.86
2018-04-07T15:17:42.683Z,30.34
2018-04-07T15:18:42.547Z,30.63
2018-04-07T15:20:34.332Z,29.76
2018-04-07T15:21:34.304Z,30.05
2018-04-07T15:23:26.041Z,30.05
2018-04-07T15:24:26.044Z,29.86
2018-04-07T15:26:17.846Z,30.63
2018-04-07T15:27:17.731Z,30.43
2018-04-07T15:29:09.508Z,30.24
2018-04-07T15:30:09.420Z,30.15
2018-04-07T15:32:01.247Z,30.34
2018-04-07T15:33:01.185Z,30.63
2018-04-07T15:34:52.973Z,31.01
2018-04-07T15:35:52.888Z,31.21
2018-04-07T15:37:44.675Z,30.91
2018-04-07T15:38:44.615Z,31.01
2018-04-07T15:40:36.398Z,30.73
2018-04-07T15:41:36.325Z,30.73
2018-04-07T15:43:28.094Z,30.73
2018-04-07T15:44:28.031Z,30.73
2018-04-07T15:46:19.848Z,30.53
2018-04-07T15:47:19.789Z,30.91
2018-04-07T15:49:11.576Z,30.91
2018-04-07T15:50:11.484Z,31.11
2018-04-07T15:52:03.278Z,31.69
2018-04-07T15:53:03.196Z,31.49
2018-04-07T15:54:55.024Z,31.21
2018-04-07T15:55:54.916Z,31.78
2018-04-07T15:57:46.701Z,31.88
2018-04-07T15:58:46.619Z,31.88
2018-04-07T16:00:38.421Z,30.91
2018-04-07T16:01:38.350Z,31.59
2018-04-07T16:03:30.164Z,31.88
2018-04-07T16:04:30.088Z,31.98
2018-04-07T16:06:21.882Z,32.17
2018-04-07T16:07:21.783Z,32.07
2018-04-07T16:09:13.569Z,32.17
2018-04-07T16:10:13.507Z,32.07
2018-04-07T16:12:05.277Z,32.07
2018-04-07T16:13:05.190Z,32.17
2018-04-07T16:14:56.964Z,32.65
2018-04-07T16:15:56.888Z,32.56
2018-04-07T16:17:48.679Z,32.36
2018-04-07T16:18:48.609Z,32.56
2018-04-07T16:20:40.398Z,32.73
2018-04-07T16:21:40.319Z,32.54
2018-04-07T16:23:32.116Z,32.56
2018-04-07T16:24:32.030Z,32.54
2018-04-07T16:26:23.851Z,32.64
2018-04-07T16:27:23.922Z,33.42
2018-04-07T16:29:15.527Z,32.92
2018-04-07T16:30:15.464Z,32.84
2018-04-07T16:32:07.437Z,33.42
2018-04-07T16:33:07.335Z,33.33
2018-04-07T16:34:59.100Z,33.51
2018-04-07T16:35:58.966Z,33.51
2018-04-07T16:37:50.769Z,34.17
2018-04-07T16:38:50.701Z,34.27
2018-04-07T16:40:42.480Z,34.08
2018-04-07T16:41:42.407Z,34.17
2018-04-07T16:43:34.209Z,34.08
2018-04-07T16:44:34.131Z,33.98
2018-04-07T16:46:25.916Z,33.89
2018-04-07T16:47:25.850Z,34.27
2018-04-07T16:49:17.616Z,33.89
2018-04-07T16:50:17.552Z,33.89
2018-04-07T16:52:09.444Z,32.75
2018-04-07T16:53:09.366Z,33.33
2018-04-07T16:55:01.125Z,34.27
2018-04-07T16:56:01.068Z,34.75
2018-04-07T16:57:52.884Z,35.42
2018-04-07T16:58:52.793Z,35.04
2018-04-07T17:00:44.736Z,35.42
2018-04-07T17:01:44.646Z,35.91
2018-04-07T17:03:36.420Z,35.50
2018-04-07T17:04:36.358Z,35.70
2018-04-07T17:06:28.162Z,35.99
2018-04-07T17:07:28.117Z,35.70
2018-04-07T17:09:19.867Z,36.37
2018-04-07T17:10:19.798Z,36.08
2018-04-07T17:12:11.581Z,35.70
2018-04-07T17:13:11.508Z,35.99
2018-04-07T17:15:03.318Z,36.56
2018-04-07T17:16:03.218Z,36.27
2018-04-07T17:17:55.029Z,36.56
2018-04-07T17:18:54.941Z,36.25
2018-04-07T17:20:46.695Z,37.32
2018-04-07T17:21:46.673Z,37.02
2018-04-07T17:23:38.419Z,37.70
2018-04-07T17:24:38.348Z,37.02
2018-04-07T17:26:30.110Z,38.18
2018-04-07T17:27:30.051Z,37.79
2018-04-07T17:29:21.878Z,38.09
2018-04-07T17:30:21.798Z,38.28
2018-04-07T17:32:13.596Z,37.89
2018-04-07T17:33:13.490Z,38.35
2018-04-07T17:35:05.307Z,38.93
2018-04-07T17:36:05.231Z,38.18
2018-04-07T17:37:57.017Z,38.09
2018-04-07T17:38:56.947Z,37.60
2018-04-07T17:40:48.767Z,38.26
2018-04-07T17:41:48.678Z,37.68
2018-04-07T17:43:40.463Z,38.35
2018-04-07T17:44:40.394Z,38.16
2018-04-07T17:46:32.171Z,38.26
2018-04-07T17:47:32.131Z,38.34
2018-04-07T17:49:23.902Z,38.34
2018-04-07T17:50:23.842Z,39.01
2018-04-07T17:52:15.693Z,39.39
2018-04-07T17:53:15.587Z,39.11
2018-04-07T17:55:07.419Z,38.91
2018-04-07T17:56:07.373Z,38.81
2018-04-07T17:57:59.149Z,39.11
2018-04-07T17:58:59.098Z,38.91
2018-04-07T18:00:50.835Z,39.20
2018-04-07T18:01:50.768Z,39.39
2018-04-07T18:03:42.573Z,39.49
2018-04-07T18:04:42.474Z,39.58
2018-04-07T18:06:34.239Z,39.56
2018-04-07T18:07:34.218Z,39.85
2018-04-07T18:09:25.970Z,39.56
2018-04-07T18:10:25.908Z,40.14
2018-04-07T18:12:17.719Z,39.66
2018-04-07T18:13:17.658Z,40.05
2018-04-07T18:15:09.458Z,39.76
2018-04-07T18:16:09.400Z,40.05
2018-04-07T18:18:01.166Z,40.05
2018-04-07T18:19:01.094Z,39.95
2018-04-07T18:20:52.859Z,40.14
2018-04-07T18:21:52.799Z,40.14
2018-04-07T18:23:44.582Z,40.60
2018-04-07T18:24:44.514Z,40.79
2018-04-07T18:26:36.280Z,40.60